createdAt,value
2022-11-14T00:01:17.409Z,4.63
2022-11-14T00:04:18.666Z,4.68
2022-11-14T00:07:19.933Z,4.93
2022-11-14T00:10:21.535Z,5.13
2022-11-14T00:13:22.848Z,4.15
2022-11-14T00:16:24.101Z,5.25
2022-11-14T00:19:25.325Z,4.78
2022-11-14T00:22:26.573Z,4.85
2022-11-14T00:25:27.872Z,4.90
2022-11-14T00:28:29.447Z,4.45
2022-11-14T00:31:30.897Z,4.70
2022-11-14T00:34:32.131Z,4.20
2022-11-14T00:37:33.367Z,4.80
2022-11-14T00:40:34.626Z,5.70
2022-11-14T00:43:35.861Z,5.13
2022-11-14T00:46:37.208Z,4.35
2022-11-14T00:49:38.457Z,4.55
2022-11-14T00:52:39.700Z,4.70
2022-11-14T00:55:41.457Z,5.40
2022-11-14T00:58:42.724Z,5.30
2022-11-14T01:01:43.973Z,5.22
2022-11-14T01:04:45.217Z,5.32
2022-11-14T01:07:46.444Z,4.90
2022-11-14T01:10:48.872Z,4.60
2022-11-14T01:13:50.136Z,5.68
2022-11-14T01:16:51.367Z,4.93
2022-11-14T01:19:52.596Z,5.75
2022-11-14T01:22:53.845Z,4.85
2022-11-14T01:25:55.102Z,5.35
2022-11-14T01:28:56.400Z,6.55
2022-11-14T01:31:57.648Z,5.85
2022-11-14T01:34:58.868Z,5.30
2022-11-14T01:38:00.245Z,6.63
2022-11-14T01:41:01.776Z,6.55
2022-11-14T01:44:03.027Z,5.30
2022-11-14T01:47:04.440Z,5.22
2022-11-14T01:50:06.004Z,6.28
2022-11-14T01:53:07.243Z,7.03
2022-11-14T01:56:10.236Z,6.47
2022-11-14T01:59:13.554Z,5.32
2022-11-14T02:02:19.802Z,5.35
2022-11-14T02:05:21.161Z,4.85
2022-11-14T02:08:24.029Z,4.75
2022-11-14T02:11:25.467Z,5.13
2022-11-14T02:14:27.347Z,5.10
2022-11-14T02:17:30.474Z,6.20
2022-11-14T02:20:35.870Z,5.75
2022-11-14T02:23:37.112Z,5.25
2022-11-14T02:26:38.636Z,6.88
2022-11-14T02:29:39.991Z,5.47
2022-11-14T02:36:02.485Z,5.93
2022-11-14T02:39:03.740Z,5.13
2022-11-14T02:42:05.373Z,6.38
2022-11-14T02:45:07.037Z,3.90
2022-11-14T02:48:08.266Z,3.75
2022-11-14T02:51:09.521Z,5.75
2022-11-14T02:54:10.796Z,4.20
2022-11-14T02:57:12.022Z,5.10
2022-11-14T03:00:15.059Z,5.35
2022-11-14T03:03:16.709Z,5.60
2022-11-14T03:06:17.985Z,5.57
2022-11-14T03:09:19.420Z,4.75
2022-11-14T03:12:20.749Z,4.60
2022-11-14T03:15:22.440Z,6.00
2022-11-14T03:18:23.708Z,4.70
2022-11-14T03:21:24.953Z,5.28
2022-11-14T03:24:26.195Z,5.07
2022-11-14T03:27:27.504Z,5.43
2022-11-14T03:30:28.728Z,4.57
2022-11-14T03:33:29.973Z,5.70
2022-11-14T03:36:31.338Z,5.18
2022-11-14T03:39:32.726Z,5.45
2022-11-14T03:42:34.823Z,4.80
2022-11-14T03:45:36.992Z,5.28
2022-11-14T03:48:38.234Z,5.22
2022-11-14T03:51:39.471Z,4.28
2022-11-14T03:54:40.718Z,5.93
2022-11-14T03:57:42.284Z,5.82
2022-11-14T04:00:43.625Z,6.10
2022-11-14T04:03:44.901Z,4.97
2022-11-14T04:06:46.143Z,4.78
2022-11-14T04:09:47.499Z,5.50
2022-11-14T04:12:49.781Z,5.38
2022-11-14T04:15:54.554Z,5.82
2022-11-14T04:21:56.937Z,5.50
2022-11-14T04:24:58.194Z,4.15
2022-11-14T04:27:59.494Z,6.15
2022-11-14T04:31:00.716Z,5.57
2022-11-14T04:34:02.014Z,5.43
2022-11-14T04:37:03.247Z,4.68
2022-11-14T04:40:04.931Z,5.38
2022-11-14T04:43:06.164Z,4.90
2022-11-14T04:46:07.441Z,6.10
2022-11-14T04:49:08.681Z,5.57
2022-11-14T04:52:09.953Z,4.88
2022-11-14T04:55:11.290Z,6.35
2022-11-14T04:58:12.584Z,5.30
2022-11-14T05:01:14.102Z,6.65
2022-11-14T05:04:15.527Z,5.18
2022-11-14T05:07:16.802Z,4.57
2022-11-14T05:10:18.087Z,6.25
2022-11-14T05:13:19.340Z,6.13
2022-11-14T05:16:20.565Z,6.25
2022-11-14T05:19:21.804Z,5.45
2022-11-14T05:22:23.072Z,6.25
2022-11-14T05:25:24.420Z,6.47
2022-11-14T05:28:25.714Z,6.38
2022-11-14T05:31:26.937Z,5.95
2022-11-14T05:34:28.195Z,5.13
2022-11-14T05:37:29.438Z,6.13
2022-11-14T05:40:30.748Z,6.07
2022-11-14T05:43:32.457Z,5.65
2022-11-14T05:46:33.792Z,6.60
2022-11-14T05:49:35.032Z,6.53
2022-11-14T05:52:36.260Z,5.00
2022-11-14T05:55:37.645Z,3.92
2022-11-14T05:58:39.086Z,4.22
2022-11-14T06:01:40.426Z,5.05
2022-11-14T06:04:41.682Z,6.80
2022-11-14T06:07:43.033Z,5.90
2022-11-14T06:10:44.254Z,7.00
2022-11-14T06:13:45.744Z,5.25
2022-11-14T06:16:47.009Z,5.75
2022-11-14T06:19:48.260Z,5.22
2022-11-14T06:22:49.710Z,5.00
2022-11-14T06:25:50.937Z,7.03
2022-11-14T06:28:52.738Z,5.75
2022-11-14T06:31:53.968Z,5.97
2022-11-14T06:34:55.242Z,5.35
2022-11-14T06:37:56.476Z,5.32
2022-11-14T06:41:05.070Z,5.60
2022-11-14T06:44:07.569Z,5.30
2022-11-14T06:47:08.800Z,4.00
2022-11-14T06:50:10.022Z,5.43
2022-11-14T06:53:11.278Z,6.10
2022-11-14T06:56:14.116Z,5.32
2022-11-14T06:59:15.373Z,6.25
2022-11-14T07:02:21.655Z,5.18
2022-11-14T07:05:23.328Z,4.70
2022-11-14T07:08:24.629Z,9.13
2022-11-14T07:11:29.327Z,6.07
2022-11-14T07:14:30.600Z,12.27
2022-11-14T07:17:34.128Z,8.90
2022-11-14T07:20:35.395Z,6.93
2022-11-14T07:23:36.713Z,6.80
2022-11-14T07:26:38.031Z,6.55
2022-11-14T07:29:39.340Z,6.80
2022-11-14T07:32:40.574Z,6.65
2022-11-14T07:35:41.979Z,7.90
2022-11-14T07:38:44.496Z,5.88
2022-11-14T07:41:45.761Z,6.07
2022-11-14T07:44:47.020Z,6.88
2022-11-14T07:47:48.253Z,6.80
2022-11-14T07:50:49.528Z,5.72
2022-11-14T07:53:51.980Z,7.03
2022-11-14T07:56:53.318Z,6.47
2022-11-14T07:59:54.579Z,6.13
2022-11-14T08:02:55.840Z,7.38
2022-11-14T08:06:00.968Z,6.45
2022-11-14T08:09:02.236Z,8.10
2022-11-14T08:12:03.605Z,7.15
2022-11-14T08:15:06.020Z,7.40
2022-11-14T08:18:07.252Z,6.35
2022-11-14T08:21:08.568Z,6.30
2022-11-14T08:24:09.930Z,6.22
2022-11-14T08:27:11.221Z,6.43
2022-11-14T08:30:12.731Z,6.32
2022-11-14T08:33:13.971Z,6.07
2022-11-14T08:36:15.415Z,6.18
2022-11-14T08:39:16.739Z,6.22
2022-11-14T08:42:18.006Z,6.25
2022-11-14T08:45:19.319Z,5.55
2022-11-14T08:48:20.570Z,6.88
2022-11-14T08:51:21.859Z,5.65
2022-11-14T08:54:23.098Z,5.63
2022-11-14T08:57:24.364Z,6.35
2022-11-14T09:00:25.929Z,4.95
2022-11-14T09:03:27.206Z,5.28
2022-11-14T09:06:28.789Z,5.47
2022-11-14T09:09:30.110Z,6.43
2022-11-14T09:12:31.448Z,5.70
2022-11-14T09:15:33.931Z,4.80
2022-11-14T09:18:35.249Z,5.53
2022-11-14T09:21:36.602Z,4.97
2022-11-14T09:24:37.867Z,5.70
2022-11-14T09:27:39.220Z,4.60
2022-11-14T09:30:41.495Z,5.45
2022-11-14T09:33:42.772Z,5.13
2022-11-14T09:36:44.169Z,5.72
2022-11-14T09:39:45.444Z,5.88
2022-11-14T09:42:57.129Z,5.20
2022-11-14T09:45:58.419Z,4.82
2022-11-14T09:48:59.757Z,5.57
2022-11-14T09:52:21.269Z,4.32
2022-11-14T09:55:23.897Z,5.35
2022-11-14T09:58:26.411Z,4.95
2022-11-14T10:01:33.724Z,5.68
2022-11-14T10:05:01.289Z,5.22
2022-11-14T10:08:18.022Z,4.38
2022-11-14T10:11:37.740Z,4.18
2022-11-14T10:14:45.217Z,4.70
2022-11-14T10:17:52.352Z,4.38
2022-11-14T10:20:55.293Z,4.15
2022-11-14T10:24:05.413Z,5.40
2022-11-14T10:27:15.243Z,5.40
2022-11-14T10:30:18.351Z,4.15
2022-11-14T10:33:22.828Z,4.82
2022-11-14T10:36:32.020Z,4.40
2022-11-14T10:39:46.601Z,4.68
2022-11-14T10:42:51.071Z,4.75
2022-11-14T10:48:59.026Z,5.00
2022-11-14T10:52:04.513Z,4.25
2022-11-14T10:55:43.520Z,4.60
2022-11-14T10:58:48.986Z,4.90
2022-11-14T11:01:51.110Z,4.20
2022-11-14T11:04:52.377Z,4.35
2022-11-14T11:08:42.219Z,4.07
2022-11-14T11:11:33.472Z,4.35
2022-11-14T11:14:35.534Z,4.22
2022-11-14T11:17:42.857Z,3.78
2022-11-14T11:20:44.698Z,4.22
2022-11-14T11:23:49.021Z,4.82
2022-11-14T11:27:10.225Z,4.20
2022-11-14T11:30:23.029Z,3.63
2022-11-14T11:33:26.183Z,4.07
2022-11-14T11:36:28.718Z,4.32
2022-11-14T11:39:31.973Z,4.40
2022-11-14T11:43:23.910Z,4.70
2022-11-14T11:45:59.794Z,4.32
2022-11-14T11:49:11.644Z,4.00
2022-11-14T11:52:17.219Z,4.95
2022-11-14T11:55:21.800Z,3.97
2022-11-14T11:58:28.386Z,3.95
2022-11-14T12:01:29.696Z,4.65
2022-11-14T12:04:30.961Z,3.60
2022-11-14T12:07:40.820Z,3.65
2022-11-14T12:10:42.748Z,4.20
2022-11-14T12:13:43.959Z,3.42
2022-11-14T12:16:54.452Z,3.38
2022-11-14T12:19:58.878Z,4.30
2022-11-14T12:26:19.518Z,3.13
2022-11-14T12:29:26.899Z,3.95
2022-11-14T12:32:32.716Z,3.00
2022-11-14T12:35:35.316Z,4.18
2022-11-14T12:38:50.722Z,4.00
2022-11-14T12:42:00.551Z,3.10
2022-11-14T12:45:01.798Z,3.10
2022-11-14T12:48:15.241Z,3.97
2022-11-14T12:51:25.860Z,2.80
2022-11-14T12:54:44.983Z,3.83
2022-11-14T12:57:56.638Z,4.05
2022-11-14T13:01:06.983Z,3.13
2022-11-14T13:04:27.247Z,3.55
2022-11-14T13:07:34.949Z,3.08
2022-11-14T13:10:40.669Z,3.22
2022-11-14T13:14:18.595Z,3.55
2022-11-14T13:17:43.234Z,2.70
2022-11-14T13:21:03.290Z,2.65
2022-11-14T13:24:05.211Z,3.10
2022-11-14T13:27:39.213Z,2.80
2022-11-14T13:31:04.023Z,2.50
2022-11-14T13:34:24.124Z,3.13
2022-11-14T13:37:42.448Z,3.08
2022-11-14T13:40:52.819Z,2.70
2022-11-14T13:44:12.898Z,2.38
2022-11-14T13:47:21.217Z,2.42
2022-11-14T13:50:29.372Z,2.47
2022-11-14T13:53:32.339Z,2.80
2022-11-14T13:56:49.359Z,2.15
2022-11-14T13:59:59.605Z,1.92
2022-11-14T14:03:21.222Z,3.28
2022-11-14T14:06:42.284Z,2.50
2022-11-14T14:10:02.071Z,2.38
2022-11-14T14:13:12.187Z,2.05
2022-11-14T14:16:18.089Z,2.58
2022-11-14T14:19:32.413Z,2.15
2022-11-14T14:23:03.121Z,2.28
2022-11-14T14:29:19.969Z,1.73
2022-11-14T14:32:21.424Z,2.60
2022-11-14T14:35:24.566Z,2.60
2022-11-14T14:38:27.179Z,2.47
2022-11-14T14:41:30.697Z,3.42
2022-11-14T14:44:36.834Z,3.15
2022-11-14T14:47:40.039Z,2.45
2022-11-14T14:50:41.471Z,3.22
2022-11-14T14:53:50.982Z,2.22
2022-11-14T14:56:53.552Z,3.25
2022-11-14T15:00:01.231Z,2.65
2022-11-14T15:03:02.760Z,2.42
2022-11-14T15:06:05.504Z,2.60
2022-11-14T15:09:19.132Z,2.72
2022-11-14T15:12:21.159Z,3.15
2022-11-14T15:15:22.726Z,3.08
2022-11-14T15:18:28.409Z,2.80
2022-11-14T15:21:29.941Z,3.42
2022-11-14T15:24:32.169Z,3.03
2022-11-14T15:27:33.469Z,3.08
2022-11-14T15:30:35.399Z,2.80
2022-11-14T15:33:36.735Z,4.30
2022-11-14T15:36:57.933Z,4.10
2022-11-14T15:40:18.847Z,4.07
2022-11-14T15:43:37.050Z,3.20
2022-11-14T15:46:40.164Z,5.13
2022-11-14T15:49:50.959Z,3.47
2022-11-14T15:52:58.864Z,3.95
2022-11-14T15:56:00.117Z,3.65
2022-11-14T15:59:01.361Z,4.07
2022-11-14T16:02:09.607Z,3.20
2022-11-14T16:05:14.641Z,4.88
2022-11-14T16:08:15.926Z,5.53
2022-11-14T16:11:17.181Z,4.30
2022-11-14T16:14:18.503Z,3.35
2022-11-14T16:17:19.793Z,3.83
2022-11-14T16:20:22.776Z,3.25
2022-11-14T16:23:24.029Z,4.18
2022-11-14T16:26:28.545Z,4.20
2022-11-14T16:32:30.954Z,5.15
2022-11-14T16:35:32.214Z,3.72
2022-11-14T16:38:33.446Z,4.03
2022-11-14T16:41:34.685Z,3.85
2022-11-14T16:44:41.203Z,3.28
2022-11-14T16:47:44.068Z,3.55
2022-11-14T16:50:45.368Z,4.32
2022-11-14T16:53:46.683Z,4.32
2022-11-14T16:56:48.332Z,2.70
2022-11-14T16:59:51.346Z,3.33
2022-11-14T17:02:52.619Z,3.25
2022-11-14T17:05:54.147Z,3.05
2022-11-14T17:08:56.350Z,3.45
2022-11-14T17:11:58.359Z,2.85
2022-11-14T17:14:59.745Z,3.78
2022-11-14T17:18:01.054Z,3.20
2022-11-14T17:21:09.879Z,2.95
2022-11-14T17:24:11.154Z,2.65
2022-11-14T17:27:15.233Z,3.38
2022-11-14T17:30:17.162Z,3.28
2022-11-14T17:33:18.453Z,3.38
2022-11-14T17:36:20.148Z,2.92
2022-11-14T17:39:21.452Z,2.97
2022-11-14T17:42:22.735Z,3.17
2022-11-14T17:45:24.181Z,3.42
2022-11-14T17:48:25.533Z,3.33
2022-11-14T17:51:26.926Z,2.75
2022-11-14T17:54:28.221Z,3.25
2022-11-14T17:57:29.550Z,3.25
2022-11-14T18:00:30.795Z,3.40
2022-11-14T18:03:32.120Z,3.30
2022-11-14T18:06:33.382Z,3.00
2022-11-14T18:09:34.663Z,3.03
2022-11-14T18:12:36.001Z,3.63
2022-11-14T18:15:38.444Z,3.47
2022-11-14T18:18:39.711Z,3.42
2022-11-14T18:21:43.115Z,3.38
2022-11-14T18:24:47.220Z,3.33
2022-11-14T18:27:48.490Z,2.63
2022-11-14T18:30:56.472Z,3.20
2022-11-14T18:33:57.844Z,2.92
2022-11-14T18:36:59.116Z,3.50
2022-11-14T18:40:00.351Z,3.25
2022-11-14T18:43:01.645Z,2.90
2022-11-14T18:46:10.174Z,3.60
2022-11-14T18:49:11.826Z,2.80
2022-11-14T18:52:17.510Z,3.58
2022-11-14T18:55:19.083Z,3.25
2022-11-14T18:58:20.333Z,2.95
2022-11-14T19:01:26.405Z,4.47
2022-11-14T19:04:27.984Z,4.60
2022-11-14T19:07:30.101Z,4.57
2022-11-14T19:10:31.442Z,3.50
2022-11-14T19:13:33.178Z,4.43
2022-11-14T19:16:35.267Z,3.20
2022-11-14T19:19:36.488Z,3.42
2022-11-14T19:22:37.746Z,3.53
2022-11-14T19:25:38.984Z,3.45
2022-11-14T19:28:40.250Z,5.15
2022-11-14T19:31:41.634Z,3.45
2022-11-14T19:34:42.955Z,3.47
2022-11-14T19:37:44.215Z,3.67
2022-11-14T19:40:50.737Z,3.35
2022-11-14T19:43:52.754Z,3.65
2022-11-14T19:46:54.059Z,3.75
2022-11-14T19:49:55.344Z,3.20
2022-11-14T19:52:56.611Z,3.47
2022-11-14T19:55:58.997Z,4.07
2022-11-14T19:59:00.409Z,4.38
2022-11-14T20:02:03.028Z,3.65
2022-11-14T20:05:04.511Z,3.13
2022-11-14T20:08:05.967Z,3.85
2022-11-14T20:11:07.665Z,3.78
2022-11-14T20:14:10.012Z,3.67
2022-11-14T20:17:11.270Z,3.05
2022-11-14T20:20:12.596Z,4.03
2022-11-14T20:23:14.024Z,2.85
2022-11-14T20:26:16.289Z,2.90
2022-11-14T20:29:17.583Z,3.00
2022-11-14T20:32:18.873Z,2.88
2022-11-14T20:35:20.219Z,3.08
2022-11-14T20:38:21.601Z,3.03
2022-11-14T20:41:22.969Z,3.00
2022-11-14T20:44:24.419Z,4.10
2022-11-14T20:47:27.425Z,3.45
2022-11-14T20:50:29.426Z,4.25
2022-11-14T20:53:31.714Z,3.33
2022-11-14T20:56:33.145Z,3.17
2022-11-14T20:59:34.457Z,3.47
2022-11-14T21:02:35.765Z,3.53
2022-11-14T21:05:40.192Z,3.58
2022-11-14T21:08:42.067Z,3.40
2022-11-14T21:11:43.326Z,3.50
2022-11-14T21:14:44.616Z,3.83
2022-11-14T21:17:45.870Z,2.72
2022-11-14T21:20:47.130Z,3.58
2022-11-14T21:23:48.381Z,3.42
2022-11-14T21:26:49.636Z,3.45
2022-11-14T21:29:50.855Z,3.75
2022-11-14T21:32:53.120Z,3.40
2022-11-14T21:35:54.657Z,4.65
2022-11-14T21:38:56.381Z,3.65
2022-11-14T21:41:57.616Z,3.13
2022-11-14T21:44:58.833Z,3.47
2022-11-14T21:48:00.094Z,3.28
2022-11-14T21:51:04.532Z,2.65
2022-11-14T21:57:10.235Z,2.70
2022-11-14T22:00:12.156Z,2.80
2022-11-14T22:03:35.422Z,2.67
2022-11-14T22:06:36.813Z,3.17
2022-11-14T22:09:43.953Z,3.38
2022-11-14T22:12:46.495Z,3.63
2022-11-14T22:15:47.738Z,3.22
2022-11-14T22:18:51.319Z,3.10
2022-11-14T22:21:52.956Z,3.25
2022-11-14T22:24:54.209Z,3.13
2022-11-14T22:27:55.442Z,2.75
2022-11-14T22:31:16.197Z,3.50
2022-11-14T22:34:17.462Z,2.58
2022-11-14T22:37:18.700Z,2.63
2022-11-14T22:40:20.053Z,2.65
2022-11-14T22:43:22.306Z,3.33
2022-11-14T22:46:23.672Z,2.78
2022-11-14T22:49:24.923Z,3.10
2022-11-14T22:52:26.162Z,2.97
2022-11-14T22:55:27.387Z,2.53
2022-11-14T22:58:32.753Z,2.75
2022-11-14T23:01:34.086Z,2.95
2022-11-14T23:04:35.305Z,2.58
2022-11-14T23:07:36.610Z,3.17
2022-11-14T23:10:37.880Z,2.65
2022-11-14T23:13:40.413Z,2.83
2022-11-14T23:16:41.659Z,2.75
2022-11-14T23:19:42.933Z,3.70
2022-11-14T23:22:44.200Z,2.67
2022-11-14T23:25:45.454Z,3.00
2022-11-14T23:28:46.703Z,2.65
2022-11-14T23:31:47.961Z,2.75
2022-11-14T23:34:49.218Z,2.85
2022-11-14T23:37:50.453Z,2.83
2022-11-14T23:40:55.301Z,2.65
2022-11-14T23:43:56.526Z,2.97
2022-11-14T23:46:57.764Z,3.08
2022-11-14T23:50:00.039Z,3.17
2022-11-14T23:53:01.267Z,2.55
2022-11-14T23:56:02.546Z,2.83
2022-11-14T23:59:03.828Z,2.45
